Terminal Aerodrome Forecast
Issued by NWS Albuquerque, NM

Home | Current Version | Previous Version | Text Only | Print | Product List | Glossary On
Versions: 1 2 3 4 5 6 7 8 9 10 11 12
496
FTUS45 KABQ 230533
TAFABQ
TAF
KABQ 230533Z 2306/2406 16010KT P6SM SCT200
     FM231600 21015KT P6SM SCT150
     FM232000 24023G35KT P6SM BKN100
     FM232300 27028G38KT P6SM VCSH BKN080
     FM240200 27018G25KT P6SM BKN060=

USA.gov is the U.S. government's official web portal to all federal, state and local government web resources and services.